Time;durP1;ratioP1;P1;durP2;ratioP2;P2;SDS_P1;SDS_P2;PMS_P1;PMS_P2;Temp;Humidity;BMP_temperature;BMP_pressure;BME280_temperature;BME280_humidity;BME280_pressure;Samples;Min_cycle;Max_cycle;Signal;HPM_P1;HPM_P2
2023/11/25 00:01:14;;;;;;;1.70;0.22;;;0.90;99.90;;;;;;5046388;28;20025;-82
2023/11/25 00:03:41;;;;;;;0.68;0.30;;;0.90;99.90;;;;;;5025533;28;20147;-79
2023/11/25 00:06:07;;;;;;;0.30;0.30;;;0.80;99.90;;;;;;5051563;28;20032;-79
2023/11/25 00:08:33;;;;;;;4.05;0.30;;;0.80;99.90;;;;;;5033460;28;20174;-79
2023/11/25 00:10:58;;;;;;;0.40;0.40;;;0.80;99.90;;;;;;5053266;28;20060;-79
2023/11/25 00:13:24;;;;;;;1.05;0.30;;;0.80;99.90;;;;;;5051300;28;20029;-82
2023/11/25 00:15:50;;;;;;;0.30;0.30;;;0.80;99.90;;;;;;5052985;28;20033;-82
2023/11/25 00:18:16;;;;;;;0.40;0.40;;;0.80;99.90;;;;;;5057883;28;20022;-82
2023/11/25 00:20:41;;;;;;;1.33;0.40;;;0.80;99.90;;;;;;5058499;28;20090;-78
2023/11/25 00:23:07;;;;;;;2.00;0.57;;;0.80;99.90;;;;;;5055234;28;20037;-79
2023/11/25 00:25:33;;;;;;;1.73;0.63;;;0.80;99.90;;;;;;5051704;28;20020;-79
2023/11/25 00:27:59;;;;;;;0.32;0.32;;;0.90;99.90;;;;;;5054057;28;20029;-79
2023/11/25 00:30:25;;;;;;;5.28;0.60;;;0.80;99.90;;;;;;5043839;28;20528;-79
2023/11/25 00:32:51;;;;;;;2.08;0.50;;;0.80;99.90;;;;;;5037512;28;20029;-79
2023/11/25 00:35:17;;;;;;;0.38;0.38;;;0.80;99.90;;;;;;5046352;28;20036;-79
2023/11/25 00:37:43;;;;;;;3.60;0.70;;;0.80;99.90;;;;;;5043423;28;20045;-78
2023/11/25 00:40:10;;;;;;;1.30;0.35;;;0.80;99.90;;;;;;5047432;28;20036;-79
2023/11/25 00:42:39;;;;;;;0.73;0.40;;;0.80;99.90;;;;;;5032379;28;20033;-79
2023/11/25 00:45:07;;;;;;;3.47;0.68;;;0.80;99.90;;;;;;5046034;28;20083;-79
2023/11/25 00:47:34;;;;;;;1.60;0.40;;;0.80;99.90;;;;;;5041665;28;20116;-79
2023/11/25 00:50:00;;;;;;;1.20;0.40;;;0.80;99.90;;;;;;5041868;28;20055;-79
2023/11/25 00:52:27;;;;;;;1.65;0.60;;;0.80;99.90;;;;;;5046739;28;20028;-79
2023/11/25 00:54:53;;;;;;;1.02;0.30;;;0.70;99.90;;;;;;5051009;28;20036;-79
2023/11/25 00:57:19;;;;;;;0.90;0.20;;;0.80;99.90;;;;;;5044414;28;20037;-80
2023/11/25 00:59:45;;;;;;;0.43;0.20;;;0.80;99.90;;;;;;5045303;28;20070;-79
2023/11/25 01:02:10;;;;;;;0.50;0.30;;;0.80;99.90;;;;;;5046898;28;20487;-78
2023/11/25 01:04:40;;;;;;;1.80;0.40;;;0.80;99.90;;;;;;5048233;28;20135;-79
2023/11/25 01:07:07;;;;;;;1.40;1.30;;;0.80;99.90;;;;;;5043713;28;20029;-79
2023/11/25 01:09:34;;;;;;;1.10;0.30;;;0.80;99.90;;;;;;5046817;28;20036;-78
2023/11/25 01:12:00;;;;;;;1.85;0.43;;;0.80;99.90;;;;;;5051564;28;20033;-79
2023/11/25 01:14:27;;;;;;;2.22;0.40;;;0.80;99.90;;;;;;5036653;28;20036;-78
2023/11/25 01:16:53;;;;;;;0.40;0.40;;;0.80;99.90;;;;;;5037721;28;20052;-78
2023/11/25 01:19:19;;;;;;;0.52;0.32;;;0.80;99.90;;;;;;5034254;28;20030;-78
2023/11/25 01:21:45;;;;;;;0.95;0.28;;;0.90;99.90;;;;;;5040192;28;20039;-78
2023/11/25 01:24:11;;;;;;;0.88;0.57;;;0.80;99.90;;;;;;5053369;28;20057;-78
2023/11/25 01:26:38;;;;;;;0.32;0.20;;;0.90;99.90;;;;;;5046554;28;20041;-77
2023/11/25 01:29:04;;;;;;;1.25;0.38;;;0.80;99.90;;;;;;5036460;28;20021;-77
2023/11/25 01:31:31;;;;;;;0.65;0.30;;;0.80;99.90;;;;;;5049838;28;20079;-77
2023/11/25 01:33:57;;;;;;;1.20;0.22;;;0.80;99.90;;;;;;5041762;28;20060;-77
2023/11/25 01:36:23;;;;;;;1.92;0.32;;;0.70;99.90;;;;;;5037768;28;20040;-76
2023/11/25 01:38:49;;;;;;;0.60;0.35;;;0.70;99.90;;;;;;5043313;28;20624;-77
2023/11/25 01:41:15;;;;;;;1.35;0.40;;;0.70;99.90;;;;;;5042573;28;20112;-77
2023/11/25 01:43:40;;;;;;;1.98;0.50;;;0.70;99.90;;;;;;5039277;28;20056;-78
2023/11/25 01:46:07;;;;;;;1.45;0.60;;;0.70;99.90;;;;;;5039682;28;20143;-77
2023/11/25 01:48:34;;;;;;;3.50;0.40;;;0.70;99.90;;;;;;5033976;28;20116;-78
2023/11/25 01:51:04;;;;;;;1.35;0.55;;;0.60;99.90;;;;;;5048167;28;20090;-78
2023/11/25 01:53:33;;;;;;;1.42;0.35;;;0.60;99.90;;;;;;5045699;28;20124;-76
2023/11/25 01:56:00;;;;;;;1.58;0.47;;;0.60;99.90;;;;;;5039111;28;20033;-77
2023/11/25 01:58:27;;;;;;;1.05;0.38;;;0.60;99.90;;;;;;5041074;28;20036;-78
2023/11/25 02:00:53;;;;;;;0.95;0.50;;;0.60;99.90;;;;;;5046833;28;20517;-77
2023/11/25 02:03:19;;;;;;;3.67;0.43;;;0.60;99.90;;;;;;5040376;28;20120;-77
2023/11/25 02:05:45;;;;;;;0.95;0.63;;;0.60;99.90;;;;;;5045303;28;20524;-77
2023/11/25 02:08:12;;;;;;;1.85;0.30;;;0.60;99.90;;;;;;5039079;28;20392;-78
2023/11/25 02:10:42;;;;;;;1.05;0.22;;;0.60;99.90;;;;;;5040962;28;20048;-77
2023/11/25 02:13:08;;;;;;;3.63;0.35;;;0.60;99.90;;;;;;5037357;28;20053;-78
2023/11/25 02:15:40;;;;;;;0.40;0.30;;;0.60;99.90;;;;;;5024092;28;20524;-77
2023/11/25 02:18:07;;;;;;;1.95;0.43;;;0.60;99.90;;;;;;5036450;28;20053;-77
2023/11/25 02:20:42;;;;;;;0.85;0.40;;;0.60;99.90;;;;;;5044354;28;20052;-79
2023/11/25 02:23:24;;;;;;;0.52;0.32;;;0.60;99.90;;;;;;5043758;28;20029;-78
2023/11/25 02:25:52;;;;;;;2.30;0.30;;;0.60;99.90;;;;;;5043246;28;20056;-78
2023/11/25 02:28:19;;;;;;;0.95;0.40;;;0.60;99.90;;;;;;5036900;28;20029;-78
2023/11/25 02:30:46;;;;;;;1.40;0.40;;;0.60;99.90;;;;;;5041806;28;20037;-78
2023/11/25 02:33:14;;;;;;;1.58;0.70;;;0.60;99.90;;;;;;5031820;28;20030;-77
2023/11/25 02:35:43;;;;;;;1.88;0.60;;;0.50;99.90;;;;;;5022449;28;20037;-77
2023/11/25 02:38:10;;;;;;;0.60;0.30;;;0.50;99.90;;;;;;5039201;28;20238;-77
2023/11/25 02:40:37;;;;;;;2.03;0.45;;;0.50;99.90;;;;;;5043808;28;20082;-77
2023/11/25 02:43:03;;;;;;;0.77;0.50;;;0.50;99.90;;;;;;5046079;28;20159;-77
2023/11/25 02:45:29;;;;;;;3.90;0.43;;;0.50;99.90;;;;;;5042363;28;20066;-78
2023/11/25 02:47:55;;;;;;;2.65;0.40;;;0.50;99.90;;;;;;5039414;28;20112;-78
2023/11/25 02:50:21;;;;;;;5.43;0.70;;;0.50;99.90;;;;;;5029726;28;20048;-77
2023/11/25 02:52:47;;;;;;;5.30;1.02;;;0.60;99.90;;;;;;5050394;28;20084;-78
2023/11/25 02:55:13;;;;;;;2.95;0.55;;;0.60;99.90;;;;;;5046945;28;20495;-77
2023/11/25 02:57:43;;;;;;;2.10;0.60;;;0.60;99.90;;;;;;5044681;28;20041;-78
2023/11/25 03:00:47;;;;;;;1.90;0.80;;;0.60;99.90;;;;;;5042249;28;20030;-77
2023/11/25 03:03:18;;;;;;;6.10;0.68;;;0.60;99.90;;;;;;5037317;28;20174;-77
2023/11/25 03:05:50;;;;;;;1.65;0.50;;;0.60;99.90;;;;;;5036398;28;20125;-77
2023/11/25 03:08:17;;;;;;;3.28;0.40;;;0.60;99.90;;;;;;5036023;28;20059;-78
2023/11/25 03:10:43;;;;;;;2.83;0.80;;;0.60;99.90;;;;;;5046332;28;20047;-78
2023/11/25 03:13:10;;;;;;;2.35;0.47;;;0.60;99.90;;;;;;5038856;28;20025;-78
2023/11/25 03:15:37;;;;;;;2.88;0.60;;;0.70;99.90;;;;;;5043208;28;20035;-78
2023/11/25 03:18:07;;;;;;;2.10;0.43;;;0.60;99.90;;;;;;5048140;28;20032;-79
2023/11/25 03:20:38;;;;;;;1.05;0.60;;;0.60;99.90;;;;;;5042522;28;20028;-78
2023/11/25 03:23:04;;;;;;;3.22;0.85;;;0.60;99.90;;;;;;5041265;28;20030;-80
2023/11/25 03:25:33;;;;;;;1.20;0.70;;;0.60;99.90;;;;;;5042608;28;20453;-80
2023/11/25 03:28:07;;;;;;;3.10;0.75;;;0.50;99.90;;;;;;5047239;28;20119;-78
2023/11/25 03:30:33;;;;;;;2.38;0.60;;;0.50;99.90;;;;;;5048360;28;20060;-79
2023/11/25 03:32:59;;;;;;;2.63;0.50;;;0.50;99.90;;;;;;5043907;28;20091;-78
2023/11/25 03:35:24;;;;;;;1.88;0.70;;;0.50;99.90;;;;;;5038151;28;20053;-77
2023/11/25 03:37:50;;;;;;;2.05;0.68;;;0.50;99.90;;;;;;5043243;28;20479;-79
2023/11/25 03:40:16;;;;;;;2.05;0.70;;;0.50;99.90;;;;;;5041807;28;20545;-80
2023/11/25 03:42:43;;;;;;;0.80;0.60;;;0.50;99.90;;;;;;5043874;28;20029;-80
2023/11/25 03:45:12;;;;;;;1.08;0.55;;;0.50;99.90;;;;;;5044157;28;20037;-79
2023/11/25 03:47:43;;;;;;;4.47;0.73;;;0.50;99.90;;;;;;5041630;28;20033;-78
2023/11/25 03:50:11;;;;;;;0.85;0.60;;;0.50;99.90;;;;;;5043664;28;20109;-79
2023/11/25 03:52:41;;;;;;;1.60;0.77;;;0.50;99.90;;;;;;5049805;28;20112;-78
2023/11/25 03:55:09;;;;;;;3.70;0.70;;;0.60;99.90;;;;;;5047255;28;20035;-77
2023/11/25 03:57:36;;;;;;;6.03;0.80;;;0.60;99.90;;;;;;5043759;28;20511;-77
2023/11/25 04:00:03;;;;;;;4.43;0.73;;;0.50;99.90;;;;;;5046972;28;20032;-78
2023/11/25 04:02:37;;;;;;;2.25;0.70;;;0.50;99.90;;;;;;5048462;28;20069;-80
2023/11/25 04:05:03;;;;;;;2.75;0.80;;;0.50;99.90;;;;;;5049443;28;20060;-79
2023/11/25 04:07:30;;;;;;;4.85;0.73;;;0.50;99.90;;;;;;5044278;28;20065;-77
2023/11/25 04:09:56;;;;;;;2.42;0.90;;;0.50;99.90;;;;;;5043108;28;20043;-79
2023/11/25 04:12:23;;;;;;;3.70;0.75;;;0.50;99.90;;;;;;5049991;28;20120;-79
2023/11/25 04:14:50;;;;;;;2.95;0.85;;;0.50;99.90;;;;;;5044736;28;20056;-78
2023/11/25 04:17:16;;;;;;;2.20;0.82;;;0.50;99.90;;;;;;5048194;28;20040;-80
2023/11/25 04:19:42;;;;;;;2.45;0.82;;;0.50;99.90;;;;;;5046149;28;20395;-79
2023/11/25 04:22:07;;;;;;;1.73;1.05;;;0.40;99.90;;;;;;5053011;28;20045;-80
2023/11/25 04:24:33;;;;;;;2.83;0.77;;;0.40;99.90;;;;;;5050907;28;20662;-80
2023/11/25 04:26:59;;;;;;;1.85;0.68;;;0.40;99.90;;;;;;5057386;28;20475;-80
2023/11/25 04:29:25;;;;;;;1.88;0.80;;;0.40;99.90;;;;;;5046418;28;20045;-79
2023/11/25 04:31:51;;;;;;;6.03;1.00;;;0.40;99.90;;;;;;5050267;28;20029;-80
2023/11/25 04:34:17;;;;;;;3.00;0.70;;;0.30;99.90;;;;;;5053029;28;20036;-80
2023/11/25 04:36:43;;;;;;;0.90;0.70;;;0.30;99.90;;;;;;5045918;28;20061;-79
2023/11/25 04:39:10;;;;;;;4.18;0.70;;;0.30;99.90;;;;;;5051119;28;20037;-80
2023/11/25 04:41:40;;;;;;;0.70;0.70;;;0.30;99.90;;;;;;5037661;28;20108;-79
2023/11/25 04:44:06;;;;;;;3.10;1.00;;;0.30;99.90;;;;;;5050529;28;20025;-80
2023/11/25 04:46:32;;;;;;;4.47;0.80;;;0.20;99.90;;;;;;5046521;28;20028;-81
2023/11/25 04:48:57;;;;;;;5.53;1.25;;;0.20;99.90;;;;;;5046509;28;20483;-80
2023/11/25 04:51:23;;;;;;;0.90;0.60;;;0.30;99.90;;;;;;5068251;28;20471;-80
2023/11/25 04:53:49;;;;;;;6.60;0.63;;;0.30;99.90;;;;;;5052735;28;20032;-80
2023/11/25 04:56:15;;;;;;;2.83;1.05;;;0.30;99.90;;;;;;5051723;28;20053;-80
2023/11/25 04:58:41;;;;;;;4.13;0.85;;;0.30;99.90;;;;;;5045535;28;20061;-77
2023/11/25 05:01:07;;;;;;;7.30;1.00;;;0.20;99.90;;;;;;5057099;28;20082;-80
2023/11/25 05:03:33;;;;;;;2.97;1.15;;;0.30;99.90;;;;;;5056704;28;20048;-79
2023/11/25 05:06:02;;;;;;;2.22;0.90;;;0.20;99.90;;;;;;5050879;28;20104;-80
2023/11/25 05:08:29;;;;;;;4.88;0.68;;;0.20;99.90;;;;;;5047849;28;20037;-79
2023/11/25 05:10:55;;;;;;;6.35;1.10;;;0.10;99.90;;;;;;5046911;28;20033;-80
2023/11/25 05:13:21;;;;;;;4.50;0.50;;;0.20;99.90;;;;;;5043819;28;20036;-79
2023/11/25 05:15:46;;;;;;;2.10;0.60;;;0.20;99.90;;;;;;5045144;28;20048;-80
2023/11/25 05:18:13;;;;;;;0.85;0.70;;;0.20;99.90;;;;;;5049555;28;20395;-80
2023/11/25 05:20:39;;;;;;;2.72;0.70;;;0.10;99.90;;;;;;5044798;28;20056;-80
2023/11/25 05:23:04;;;;;;;2.65;0.80;;;0.10;99.90;;;;;;5042053;28;20483;-80
2023/11/25 05:25:30;;;;;;;4.95;0.90;;;0.00;99.90;;;;;;5043850;28;20056;-76
2023/11/25 05:27:57;;;;;;;4.75;0.90;;;0.00;99.90;;;;;;5046178;28;20065;-80
2023/11/25 05:30:23;;;;;;;4.00;1.15;;;0.00;99.90;;;;;;5048900;28;20067;-78
2023/11/25 05:32:48;;;;;;;3.20;0.80;;;0.00;99.90;;;;;;5050794;28;20022;-77
2023/11/25 05:35:14;;;;;;;2.65;1.05;;;0.00;99.90;;;;;;5043586;28;20132;-78
2023/11/25 05:37:42;;;;;;;2.45;1.05;;;0.00;99.90;;;;;;5040889;28;20048;-79
2023/11/25 05:40:11;;;;;;;4.72;0.85;;;0.00;99.90;;;;;;5048816;28;20550;-78
2023/11/25 05:42:38;;;;;;;5.38;0.90;;;0.00;99.90;;;;;;5048111;28;20029;-78
2023/11/25 05:45:11;;;;;;;7.22;0.98;;;0.00;99.90;;;;;;5062704;28;20399;-78
2023/11/25 05:47:37;;;;;;;1.58;0.80;;;0.00;99.90;;;;;;5052870;28;20119;-77
2023/11/25 05:50:03;;;;;;;2.50;0.90;;;-0.10;99.90;;;;;;5046847;28;20083;-78
2023/11/25 05:52:29;;;;;;;1.17;0.70;;;-0.10;99.90;;;;;;5050519;28;20143;-79
2023/11/25 05:54:55;;;;;;;5.20;1.02;;;-0.10;99.90;;;;;;5050287;28;20030;-78
2023/11/25 05:57:22;;;;;;;1.63;0.88;;;-0.10;99.90;;;;;;5040380;28;20025;-79
2023/11/25 05:59:48;;;;;;;4.45;1.15;;;-0.10;99.90;;;;;;5042833;28;20016;-79
2023/11/25 06:02:13;;;;;;;6.03;1.00;;;0.00;99.90;;;;;;5055447;28;20549;-78
2023/11/25 06:04:39;;;;;;;4.03;1.02;;;-0.10;99.90;;;;;;5038172;28;20812;-79
2023/11/25 06:07:05;;;;;;;3.00;1.00;;;-0.20;99.90;;;;;;5046629;28;20068;-78
2023/11/25 06:09:31;;;;;;;2.17;0.88;;;-0.20;99.90;;;;;;5044475;28;20102;-76
2023/11/25 06:11:57;;;;;;;0.90;0.68;;;-0.20;99.90;;;;;;5043748;28;20036;-79
2023/11/25 06:14:24;;;;;;;3.22;0.82;;;-0.20;99.90;;;;;;5048037;28;20495;-78
2023/11/25 06:16:52;;;;;;;1.70;0.98;;;-0.20;99.90;;;;;;5052325;28;20029;-77
2023/11/25 06:19:20;;;;;;;2.25;0.70;;;-0.20;99.90;;;;;;5042515;28;20494;-78
2023/11/25 06:21:47;;;;;;;3.83;0.90;;;-0.30;99.90;;;;;;5043069;28;20028;-77
2023/11/25 06:24:16;;;;;;;3.25;0.73;;;-0.30;99.90;;;;;;5041107;28;20022;-77
2023/11/25 06:26:44;;;;;;;5.65;1.20;;;-0.30;99.90;;;;;;5049672;28;20059;-79
2023/11/25 06:29:09;;;;;;;2.97;0.80;;;-0.30;99.90;;;;;;5048989;28;20033;-79
2023/11/25 06:31:36;;;;;;;2.42;0.80;;;-0.40;99.90;;;;;;5052420;28;20711;-78
2023/11/25 06:34:03;;;;;;;1.48;0.82;;;-0.40;99.90;;;;;;5046381;28;20411;-77
2023/11/25 06:36:29;;;;;;;3.33;0.73;;;-0.40;99.90;;;;;;5043216;28;20025;-77
2023/11/25 06:38:55;;;;;;;3.60;1.00;;;-0.40;99.90;;;;;;5047533;28;20422;-77
2023/11/25 06:41:24;;;;;;;6.13;0.85;;;-0.40;99.90;;;;;;5043976;28;20026;-78
2023/11/25 06:43:50;;;;;;;3.97;0.85;;;-0.40;99.90;;;;;;5042013;28;20025;-79
2023/11/25 06:46:16;;;;;;;5.32;1.95;;;-0.40;99.90;;;;;;5046011;28;20032;-79
2023/11/25 06:48:41;;;;;;;2.78;0.80;;;-0.50;99.90;;;;;;5046875;28;20047;-77
2023/11/25 06:51:10;;;;;;;5.50;0.80;;;-0.50;99.90;;;;;;5049095;28;20504;-78
2023/11/25 06:53:36;;;;;;;3.40;0.80;;;-0.50;99.90;;;;;;5044179;28;20041;-79
2023/11/25 06:56:02;;;;;;;3.35;0.70;;;-0.50;99.90;;;;;;5047865;28;20083;-78
2023/11/25 06:58:28;;;;;;;1.30;0.70;;;-0.50;99.90;;;;;;5041571;28;20068;-77
2023/11/25 07:00:57;;;;;;;3.60;1.00;;;-0.50;99.90;;;;;;5049144;28;20108;-75
2023/11/25 07:03:23;;;;;;;3.08;1.08;;;-0.50;99.90;;;;;;5043228;28;20060;-77
2023/11/25 07:05:49;;;;;;;2.65;1.10;;;-0.60;99.90;;;;;;5035075;28;20021;-77
2023/11/25 07:08:15;;;;;;;1.25;0.80;;;-0.50;99.90;;;;;;5033866;28;20037;-76
2023/11/25 07:10:51;;;;;;;2.35;0.65;;;-0.60;99.90;;;;;;5036016;28;20179;-77
2023/11/25 07:13:17;;;;;;;5.10;0.90;;;-0.60;99.90;;;;;;5049554;28;20033;-77
2023/11/25 07:15:43;;;;;;;3.60;0.88;;;-0.60;99.90;;;;;;5040076;28;20055;-78
2023/11/25 07:18:08;;;;;;;2.05;0.80;;;-0.50;99.90;;;;;;5033817;28;20033;-78
2023/11/25 07:20:34;;;;;;;5.15;0.98;;;-0.50;99.90;;;;;;5044954;28;20076;-77
2023/11/25 07:22:59;;;;;;;3.72;0.85;;;-0.50;99.90;;;;;;5044523;28;20030;-77
2023/11/25 07:25:27;;;;;;;2.97;1.08;;;-0.50;99.90;;;;;;5043780;28;20028;-77
2023/11/25 07:27:53;;;;;;;2.10;1.00;;;-0.40;99.90;;;;;;5045223;28;20071;-77
2023/11/25 07:30:19;;;;;;;2.83;0.90;;;-0.40;99.90;;;;;;5039869;28;20029;-77
2023/11/25 07:32:45;;;;;;;8.15;1.67;;;-0.30;99.90;;;;;;5048668;28;20700;-78
2023/11/25 07:35:11;;;;;;;3.83;0.82;;;-0.30;99.90;;;;;;5072370;28;20090;-78
2023/11/25 07:37:38;;;;;;;3.65;0.80;;;-0.30;99.90;;;;;;5056347;28;20057;-78
2023/11/25 07:40:08;;;;;;;4.28;1.33;;;-0.30;99.90;;;;;;5056738;28;20033;-79
2023/11/25 07:42:34;;;;;;;5.30;1.02;;;-0.30;99.90;;;;;;5049965;28;20045;-78
2023/11/25 07:45:00;;;;;;;4.15;0.90;;;-0.30;99.90;;;;;;5045786;28;20033;-78
2023/11/25 07:47:25;;;;;;;6.78;1.20;;;-0.30;99.90;;;;;;5046350;28;20430;-77
2023/11/25 07:49:51;;;;;;;1.88;0.88;;;-0.20;99.90;;;;;;5046445;28;21888;-78
2023/11/25 07:52:17;;;;;;;5.43;1.30;;;-0.20;99.90;;;;;;5049488;28;20113;-78
2023/11/25 07:54:43;;;;;;;5.25;1.00;;;-0.20;99.90;;;;;;5046659;28;20562;-79
2023/11/25 07:57:08;;;;;;;4.60;0.88;;;-0.20;99.90;;;;;;5040459;28;20037;-78
2023/11/25 07:59:38;;;;;;;1.55;0.68;;;-0.20;99.90;;;;;;5046067;28;20048;-79
2023/11/25 08:02:04;;;;;;;5.20;1.20;;;-0.10;99.90;;;;;;5049629;28;20033;-79
2023/11/25 08:04:32;;;;;;;3.78;1.15;;;-0.10;99.90;;;;;;5053871;28;20480;-79
2023/11/25 08:06:58;;;;;;;4.88;1.17;;;0.00;99.90;;;;;;5054634;28;20056;-79
2023/11/25 08:09:24;;;;;;;5.85;1.20;;;0.00;99.90;;;;;;5047833;28;20378;-79
2023/11/25 08:11:49;;;;;;;4.30;1.73;;;0.00;99.90;;;;;;5052587;28;20033;-79
2023/11/25 08:14:16;;;;;;;2.45;1.23;;;0.10;99.90;;;;;;5055444;28;20045;-79
2023/11/25 08:16:42;;;;;;;4.80;1.65;;;0.10;99.90;;;;;;5053579;28;20061;-79
2023/11/25 08:19:07;;;;;;;7.05;1.48;;;0.10;99.90;;;;;;5052211;28;20594;-79
2023/11/25 08:21:33;;;;;;;3.78;1.52;;;0.10;99.90;;;;;;5048104;28;20038;-79
2023/11/25 08:24:00;;;;;;;2.92;0.90;;;0.20;99.90;;;;;;5049793;28;20032;-79
2023/11/25 08:26:26;;;;;;;2.80;1.00;;;0.20;99.90;;;;;;5047580;28;20404;-78
2023/11/25 08:28:53;;;;;;;1.30;0.80;;;0.20;99.90;;;;;;5045458;28;20424;-77
2023/11/25 08:31:23;;;;;;;2.35;0.90;;;0.20;99.90;;;;;;5046299;28;20032;-77
2023/11/25 08:33:49;;;;;;;5.38;1.30;;;0.20;99.90;;;;;;5036457;28;20435;-78
2023/11/25 08:36:17;;;;;;;3.08;0.90;;;0.20;99.90;;;;;;5046611;28;20087;-77
2023/11/25 08:38:43;;;;;;;7.20;1.10;;;0.20;99.90;;;;;;5044133;28;20064;-78
2023/11/25 08:41:09;;;;;;;4.28;1.10;;;0.20;99.90;;;;;;5051060;28;20036;-78
2023/11/25 08:43:39;;;;;;;0.73;0.63;;;0.30;99.90;;;;;;5053222;28;20502;-79
2023/11/25 08:46:05;;;;;;;3.45;1.02;;;0.20;99.90;;;;;;5051377;28;20033;-78
2023/11/25 08:48:31;;;;;;;3.05;0.93;;;0.30;99.90;;;;;;5049895;28;20058;-78
2023/11/25 08:50:57;;;;;;;6.70;1.05;;;0.40;99.90;;;;;;5053610;28;20441;-78
2023/11/25 08:53:23;;;;;;;2.45;1.40;;;0.40;99.90;;;;;;5045972;28;20130;-78
2023/11/25 08:55:50;;;;;;;3.65;1.20;;;0.40;99.90;;;;;;5044549;28;20040;-78
2023/11/25 08:58:16;;;;;;;2.92;1.05;;;0.50;99.90;;;;;;5047935;28;20032;-78
2023/11/25 09:00:43;;;;;;;4.50;1.58;;;0.50;99.90;;;;;;5046038;28;20142;-78
2023/11/25 09:03:10;;;;;;;3.88;1.33;;;0.50;99.90;;;;;;5042107;28;20060;-78
2023/11/25 09:05:40;;;;;;;3.45;1.13;;;0.50;99.90;;;;;;5047256;28;20053;-78
2023/11/25 09:08:08;;;;;;;7.05;1.65;;;0.60;99.90;;;;;;5036919;28;20037;-78
2023/11/25 09:10:35;;;;;;;1.80;1.10;;;0.60;99.90;;;;;;5048131;28;20051;-79
2023/11/25 09:13:04;;;;;;;6.63;1.25;;;0.60;99.90;;;;;;5043670;28;20398;-78
2023/11/25 09:15:29;;;;;;;5.57;1.75;;;0.60;99.90;;;;;;5041608;28;20033;-78
2023/11/25 09:17:55;;;;;;;6.13;1.80;;;0.60;99.90;;;;;;5042190;28;20025;-78
2023/11/25 09:20:21;;;;;;;5.47;1.55;;;0.70;99.90;;;;;;5045470;28;20036;-77
2023/11/25 09:22:48;;;;;;;7.32;1.38;;;0.70;99.90;;;;;;5035968;28;20045;-78
2023/11/25 09:25:14;;;;;;;4.00;1.70;;;0.70;99.90;;;;;;5042003;28;20056;-78
2023/11/25 09:27:41;;;;;;;9.50;1.83;;;0.80;99.90;;;;;;5039311;28;20049;-78
2023/11/25 09:30:11;;;;;;;5.78;1.70;;;0.80;99.90;;;;;;5057687;28;20040;-78
2023/11/25 09:32:37;;;;;;;4.43;1.65;;;0.80;99.90;;;;;;5047391;28;20033;-78
2023/11/25 09:35:04;;;;;;;8.70;2.13;;;0.80;99.90;;;;;;5044840;28;20119;-78
2023/11/25 09:37:30;;;;;;;6.43;1.95;;;0.80;99.90;;;;;;5048394;28;20647;-78
2023/11/25 09:39:56;;;;;;;7.40;2.53;;;0.80;99.90;;;;;;5046752;28;20033;-79
2023/11/25 09:42:21;;;;;;;6.40;2.42;;;0.80;99.90;;;;;;5047498;28;20025;-79
2023/11/25 09:44:49;;;;;;;9.20;2.40;;;0.80;99.90;;;;;;5043850;28;20124;-79
2023/11/25 09:47:15;;;;;;;9.10;2.53;;;0.80;99.90;;;;;;5053188;28;20035;-78
2023/11/25 09:49:40;;;;;;;4.30;1.70;;;0.80;99.90;;;;;;5046510;28;20033;-78
2023/11/25 09:52:09;;;;;;;6.18;2.10;;;0.80;99.90;;;;;;5048620;28;20075;-78
2023/11/25 09:54:35;;;;;;;3.90;1.73;;;0.80;99.90;;;;;;5036860;28;20029;-79
2023/11/25 09:57:03;;;;;;;4.05;1.92;;;0.80;99.90;;;;;;5045212;28;20372;-78
2023/11/25 09:59:30;;;;;;;12.77;4.75;;;0.80;99.90;;;;;;5045646;28;20031;-78
2023/11/25 10:01:58;;;;;;;12.23;2.40;;;0.80;99.90;;;;;;5044601;28;20570;-78
2023/11/25 10:04:29;;;;;;;9.00;2.60;;;0.90;99.90;;;;;;5047444;28;20168;-78
2023/11/25 10:06:54;;;;;;;11.43;2.55;;;0.90;99.90;;;;;;5055830;28;20037;-78
2023/11/25 10:09:24;;;;;;;9.85;2.42;;;0.90;99.90;;;;;;5043104;28;20415;-77
2023/11/25 10:12:02;;;;;;;9.65;2.38;;;0.90;99.90;;;;;;5048184;28;20124;-77
2023/11/25 10:14:31;;;;;;;8.75;3.05;;;0.90;99.90;;;;;;5047039;28;20116;-78
2023/11/25 10:16:57;;;;;;;8.82;2.72;;;0.90;99.90;;;;;;5040356;28;20499;-78
2023/11/25 10:19:23;;;;;;;12.60;3.35;;;0.90;99.90;;;;;;5042714;28;20067;-79
2023/11/25 10:21:50;;;;;;;7.70;3.10;;;0.90;99.90;;;;;;5046964;28;20458;-79
2023/11/25 10:24:20;;;;;;;6.90;2.42;;;0.90;99.90;;;;;;5047236;28;20142;-79
2023/11/25 10:26:46;;;;;;;8.95;2.40;;;0.90;99.90;;;;;;5045383;28;20037;-78
2023/11/25 10:29:14;;;;;;;4.55;2.65;;;0.90;99.90;;;;;;5045433;28;20087;-79
2023/11/25 10:31:45;;;;;;;7.45;3.20;;;0.90;99.90;;;;;;5047251;28;20115;-78
2023/11/25 10:34:11;;;;;;;7.47;2.50;;;0.90;99.90;;;;;;5030573;28;20395;-79
2023/11/25 10:36:40;;;;;;;7.43;2.72;;;0.90;99.90;;;;;;5044596;28;20036;-78
2023/11/25 10:39:08;;;;;;;15.80;3.80;;;1.00;99.90;;;;;;5043826;28;20094;-79
2023/11/25 10:41:38;;;;;;;4.63;3.55;;;0.90;99.90;;;;;;5051914;28;20040;-79
2023/11/25 10:44:08;;;;;;;12.50;3.22;;;1.00;99.90;;;;;;5054498;28;20021;-79
2023/11/25 10:46:41;;;;;;;6.60;2.90;;;1.00;99.90;;;;;;5048513;28;20128;-79
2023/11/25 10:49:08;;;;;;;10.55;2.80;;;1.00;99.90;;;;;;5046673;28;20030;-79
2023/11/25 10:51:39;;;;;;;9.90;3.60;;;1.00;99.90;;;;;;5043562;28;20304;-79
2023/11/25 10:54:09;;;;;;;16.20;4.15;;;1.10;99.90;;;;;;5040931;28;20574;-79
2023/11/25 10:56:37;;;;;;;11.60;3.10;;;1.10;99.90;;;;;;5047397;28;20033;-78
2023/11/25 10:59:03;;;;;;;15.07;4.13;;;1.10;99.90;;;;;;5046558;28;20063;-78
2023/11/25 11:01:32;;;;;;;10.70;3.80;;;1.20;99.90;;;;;;5049811;28;20017;-78
2023/11/25 11:04:09;;;;;;;18.02;4.00;;;1.20;99.90;;;;;;5040667;28;20187;-80
2023/11/25 11:06:51;;;;;;;14.48;4.30;;;1.20;99.90;;;;;;5050505;28;20064;-78
2023/11/25 11:09:19;;;;;;;9.32;3.40;;;1.20;99.90;;;;;;5037357;28;20048;-79
2023/11/25 11:11:50;;;;;;;9.65;3.63;;;1.20;99.90;;;;;;5041668;28;20586;-79
2023/11/25 11:14:19;;;;;;;7.13;3.28;;;1.20;99.90;;;;;;5041632;28;20044;-77
2023/11/25 11:16:53;;;;;;;9.65;3.55;;;1.20;99.90;;;;;;5040618;28;20036;-78
2023/11/25 11:19:24;;;;;;;10.38;3.42;;;1.30;99.90;;;;;;5042994;28;20116;-79
2023/11/25 11:21:55;;;;;;;9.68;4.07;;;1.30;99.90;;;;;;5047471;28;20033;-80
2023/11/25 11:24:33;;;;;;;9.18;3.92;;;1.40;99.90;;;;;;5049965;28;20053;-78
2023/11/25 11:27:17;;;;;;;13.10;4.55;;;1.40;99.90;;;;;;5047773;28;20076;-79
2023/11/25 11:29:52;;;;;;;14.02;4.65;;;1.30;99.90;;;;;;5038172;28;20033;-78
2023/11/25 11:32:19;;;;;;;;;;;1.30;99.90;;;;;;5043253;28;20390;-79
2023/11/25 11:34:46;;;;;;;10.07;3.92;;;1.30;99.90;;;;;;5046024;28;19919;-78
2023/11/25 11:37:12;;;;;;;10.35;4.00;;;1.30;99.90;;;;;;5049646;28;20037;-77
2023/11/25 11:39:51;;;;;;;16.48;4.60;;;1.30;99.90;;;;;;5041087;28;20036;-78
2023/11/25 11:42:25;;;;;;;15.40;4.85;;;1.30;99.90;;;;;;5044413;28;20025;-83
2023/11/25 11:44:55;;;;;;;12.45;4.75;;;1.30;99.90;;;;;;5034419;28;20027;-78
2023/11/25 11:47:22;;;;;;;10.75;5.18;;;1.30;99.90;;;;;;5043812;28;20484;-78
2023/11/25 11:49:49;;;;;;;11.13;4.40;;;1.30;99.90;;;;;;5042200;28;20025;-78
2023/11/25 11:52:14;;;;;;;14.27;4.35;;;1.40;99.90;;;;;;5046904;28;20026;-79
2023/11/25 11:54:41;;;;;;;14.40;5.97;;;1.40;99.90;;;;;;5042409;28;20040;-79
2023/11/25 11:57:13;;;;;;;15.88;4.82;;;1.40;99.90;;;;;;5048735;28;20097;-79
2023/11/25 12:00:01;;;;;;;15.20;4.57;;;1.50;99.90;;;;;;5048027;28;20418;-79
2023/11/25 12:02:30;;;;;;;13.13;4.88;;;1.50;99.90;;;;;;5048802;28;20471;-79
2023/11/25 12:05:00;;;;;;;12.38;4.80;;;1.50;99.90;;;;;;5053811;28;20025;-79
2023/11/25 12:07:27;;;;;;;16.35;4.88;;;1.60;99.90;;;;;;5048898;28;20590;-79
2023/11/25 12:09:54;;;;;;;13.45;5.00;;;1.60;99.90;;;;;;5050056;28;20022;-78
2023/11/25 12:12:20;;;;;;;13.70;4.40;;;1.60;99.90;;;;;;5050138;28;20116;-79
2023/11/25 12:14:47;;;;;;;20.05;5.53;;;1.60;99.90;;;;;;5051155;28;20466;-79
2023/11/25 12:17:13;;;;;;;15.07;5.30;;;1.60;99.90;;;;;;5051659;28;20044;-79
2023/11/25 12:19:40;;;;;;;13.63;5.47;;;1.60;99.90;;;;;;5051091;28;20505;-79
2023/11/25 12:22:08;;;;;;;13.38;4.57;;;1.60;99.90;;;;;;5048703;28;20034;-79
2023/11/25 12:24:34;;;;;;;16.42;5.40;;;1.60;99.90;;;;;;5051319;28;20405;-79
2023/11/25 12:27:03;;;;;;;17.05;5.10;;;1.60;99.90;;;;;;5055393;28;20040;-79
2023/11/25 12:29:33;;;;;;;13.95;4.57;;;1.60;99.90;;;;;;5047074;28;20033;-79
2023/11/25 12:31:59;;;;;;;12.57;4.50;;;1.60;99.90;;;;;;5054532;28;20034;-79
2023/11/25 12:34:25;;;;;;;12.73;4.95;;;1.60;99.90;;;;;;5044594;28;20029;-79
2023/11/25 12:36:51;;;;;;;15.05;4.47;;;1.60;99.90;;;;;;5055732;28;20079;-79
2023/11/25 12:39:17;;;;;;;23.27;5.57;;;1.60;99.90;;;;;;5051400;28;20036;-79
2023/11/25 12:41:49;;;;;;;23.15;5.38;;;1.70;99.90;;;;;;5050888;28;20083;-79
2023/11/25 12:44:16;;;;;;;14.38;4.25;;;1.70;99.90;;;;;;5051593;28;20040;-80
2023/11/25 12:47:03;;;;;;;14.70;4.70;;;1.70;99.90;;;;;;5058684;28;20120;-79
2023/11/25 12:49:29;;;;;;;18.23;5.18;;;1.80;99.90;;;;;;5049489;28;20048;-79
2023/11/25 12:51:55;;;;;;;16.45;6.32;;;1.80;99.90;;;;;;5050383;28;20029;-79
2023/11/25 12:54:21;;;;;;;14.10;4.13;;;1.80;99.90;;;;;;5054063;28;20455;-79